sensor_id;sensor_type;location;lat;lon;timestamp;pressure;altitude;pressure_sealevel;temperature;humidity
57374;BME280;43964;53.890;25.340;2023-03-21T00:04:27;1017.9;;;11.3;60.6
57374;BME280;43964;53.890;25.340;2023-03-21T00:09:11;1017.8;;;11.2;60.8
57374;BME280;43964;53.890;25.340;2023-03-21T00:14:29;1017.8;;;11.2;60.7
57374;BME280;43964;53.890;25.340;2023-03-21T00:18:52;1017.8;;;11.1;60.8
57374;BME280;43964;53.890;25.340;2023-03-21T00:23:57;1017.8;;;11;60.9
57374;BME280;43964;53.890;25.340;2023-03-21T00:28:41;1017.8;;;10.9;60.9
57374;BME280;43964;53.890;25.340;2023-03-21T00:34:29;1017.9;;;10.9;60.8
57374;BME280;43964;53.890;25.340;2023-03-21T00:38:41;1017.9;;;10.8;60.6
57374;BME280;43964;53.890;25.340;2023-03-21T00:44:03;1017.9;;;10.7;60.6
57374;BME280;43964;53.890;25.340;2023-03-21T00:49:27;1018;;;10.6;60.6
57374;BME280;43964;53.890;25.340;2023-03-21T00:53:49;1018;;;10.4;60.5
57374;BME280;43964;53.890;25.340;2023-03-21T00:59:01;1018;;;10.3;60.6
57374;BME280;43964;53.890;25.340;2023-03-21T01:04:05;1018;;;10.2;60.9
57374;BME280;43964;53.890;25.340;2023-03-21T01:09:27;1018;;;10;61.2
57374;BME280;43964;53.890;25.340;2023-03-21T01:14:07;1018;;;9.9;61.4
57374;BME280;43964;53.890;25.340;2023-03-21T01:18:39;1018;;;9.9;61.6
57374;BME280;43964;53.890;25.340;2023-03-21T01:24:27;1017.9;;;9.8;61.6
57374;BME280;43964;53.890;25.340;2023-03-21T01:28:41;1017.9;;;9.8;61.6
57374;BME280;43964;53.890;25.340;2023-03-21T01:33:39;1017.9;;;9.7;61.5
57374;BME280;43964;53.890;25.340;2023-03-21T01:38:55;1018;;;9.7;61.5
57374;BME280;43964;53.890;25.340;2023-03-21T01:44:19;1018;;;9.5;61.6
57374;BME280;43964;53.890;25.340;2023-03-21T01:48:40;1017.9;;;9.4;62
57374;BME280;43964;53.890;25.340;2023-03-21T01:53:47;1018;;;9.4;62.1
57374;BME280;43964;53.890;25.340;2023-03-21T01:59:04;1018.1;;;9.3;62
57374;BME280;43964;53.890;25.340;2023-03-21T02:03:39;1018.2;;;9.3;62
57374;BME280;43964;53.890;25.340;2023-03-21T02:09:27;1018.1;;;9.3;61.9
57374;BME280;43964;53.890;25.340;2023-03-21T02:14:14;1018.1;;;9.4;61.9
57374;BME280;43964;53.890;25.340;2023-03-21T02:18:47;1018.1;;;9.4;61.9
57374;BME280;43964;53.890;25.340;2023-03-21T02:24:23;1018.2;;;9.3;61.9
57374;BME280;43964;53.890;25.340;2023-03-21T02:29:32;1018.2;;;9.3;62
57374;BME280;43964;53.890;25.340;2023-03-21T02:34:01;1018.2;;;9.2;62
57374;BME280;43964;53.890;25.340;2023-03-21T02:39:10;1018.2;;;9.2;62.2
57374;BME280;43964;53.890;25.340;2023-03-21T02:44:20;1018.3;;;9.2;62.1
57374;BME280;43964;53.890;25.340;2023-03-21T02:49:14;1018.2;;;9.1;62.4
57374;BME280;43964;53.890;25.340;2023-03-21T02:53:39;1018.2;;;9;62.6
57374;BME280;43964;53.890;25.340;2023-03-21T02:58:49;1018.2;;;9.1;62.6
57374;BME280;43964;53.890;25.340;2023-03-21T03:04:27;1018.1;;;9.1;62.5
57374;BME280;43964;53.890;25.340;2023-03-21T03:09:28;1018.1;;;9.1;62.5
57374;BME280;43964;53.890;25.340;2023-03-21T03:13:58;1018.2;;;9.1;62.5
57374;BME280;43964;53.890;25.340;2023-03-21T03:19:26;1018.2;;;9.1;62.4
57374;BME280;43964;53.890;25.340;2023-03-21T03:24:05;1018.1;;;9.1;62.4
57374;BME280;43964;53.890;25.340;2023-03-21T03:28:40;1018.1;;;9.1;62.4
57374;BME280;43964;53.890;25.340;2023-03-21T03:33:56;1018.2;;;9.1;62.5
57374;BME280;43964;53.890;25.340;2023-03-21T03:39:29;1018.2;;;9.2;62.5
57374;BME280;43964;53.890;25.340;2023-03-21T03:43:50;1018.2;;;9.3;62.6
57374;BME280;43964;53.890;25.340;2023-03-21T03:49:03;1018.2;;;9.4;62.6
57374;BME280;43964;53.890;25.340;2023-03-21T03:54:28;1018.2;;;9.5;62.6
57374;BME280;43964;53.890;25.340;2023-03-21T03:59:25;1018.1;;;9.5;62.4
57374;BME280;43964;53.890;25.340;2023-03-21T04:03:59;1018.2;;;9.6;62.4
57374;BME280;43964;53.890;25.340;2023-03-21T04:09:19;1018.2;;;9.6;62.3
57374;BME280;43964;53.890;25.340;2023-03-21T04:14:27;1018.2;;;9.6;62.3
57374;BME280;43964;53.890;25.340;2023-03-21T04:19:01;1018.2;;;9.6;62.4
57374;BME280;43964;53.890;25.340;2023-03-21T04:24:05;1018.1;;;9.6;62.3
57374;BME280;43964;53.890;25.340;2023-03-21T04:28:55;1018.1;;;9.6;62.3
57374;BME280;43964;53.890;25.340;2023-03-21T04:34:07;1018.1;;;9.7;62.4
57374;BME280;43964;53.890;25.340;2023-03-21T04:38:47;1018.1;;;9.7;62.4
57374;BME280;43964;53.890;25.340;2023-03-21T04:43:53;1018.1;;;9.8;62.4
57374;BME280;43964;53.890;25.340;2023-03-21T04:48:49;1018.1;;;9.8;62.3
57374;BME280;43964;53.890;25.340;2023-03-21T04:54:01;1018.2;;;9.8;62.1
57374;BME280;43964;53.890;25.340;2023-03-21T04:59:27;1018.3;;;9.8;62.4
57374;BME280;43964;53.890;25.340;2023-03-21T05:04:13;1018.2;;;9.9;62.4
57374;BME280;43964;53.890;25.340;2023-03-21T05:08:41;1018.1;;;10;62.2
57374;BME280;43964;53.890;25.340;2023-03-21T05:14:29;1018.2;;;10.1;62.1
57374;BME280;43964;53.890;25.340;2023-03-21T05:18:57;1018.2;;;10.2;62.1
57374;BME280;43964;53.890;25.340;2023-03-21T05:23:51;1018.2;;;10.2;62.2
57374;BME280;43964;53.890;25.340;2023-03-21T05:29:21;1018.2;;;10.2;62.2
57374;BME280;43964;53.890;25.340;2023-03-21T05:34:29;1018.3;;;10.3;62.1
57374;BME280;43964;53.890;25.340;2023-03-21T05:38:41;1018.3;;;10.3;62.1
57374;BME280;43964;53.890;25.340;2023-03-21T05:44:07;1018.3;;;10.3;62.1
57374;BME280;43964;53.890;25.340;2023-03-21T05:49:19;1018.4;;;10.4;62.1
57374;BME280;43964;53.890;25.340;2023-03-21T05:54:13;1018.4;;;10.4;62
57374;BME280;43964;53.890;25.340;2023-03-21T05:59:07;1018.4;;;10.4;61.9
57374;BME280;43964;53.890;25.340;2023-03-21T06:09:27;1018.5;;;10.5;61.8
57374;BME280;43964;53.890;25.340;2023-03-21T06:14:27;1018.5;;;10.5;61.9
57374;BME280;43964;53.890;25.340;2023-03-21T06:18:53;1018.5;;;10.6;61.9
57374;BME280;43964;53.890;25.340;2023-03-21T06:24:27;1018.6;;;10.7;61.7
57374;BME280;43964;53.890;25.340;2023-03-21T06:28:41;1018.6;;;10.8;61.6
57374;BME280;43964;53.890;25.340;2023-03-21T06:33:41;1018.6;;;10.8;61.6
57374;BME280;43964;53.890;25.340;2023-03-21T06:38:55;1018.6;;;11;61.4
57374;BME280;43964;53.890;25.340;2023-03-21T06:44:27;1018.6;;;11.2;61.2
57374;BME280;43964;53.890;25.340;2023-03-21T06:49:17;1018.6;;;11.7;60.7
57374;BME280;43964;53.890;25.340;2023-03-21T06:54:01;1018.7;;;11.9;60.4
57374;BME280;43964;53.890;25.340;2023-03-21T06:59:27;1018.7;;;12;60.3
57374;BME280;43964;53.890;25.340;2023-03-21T07:03:49;1018.7;;;12.2;59.8
57374;BME280;43964;53.890;25.340;2023-03-21T07:08:53;1018.7;;;12.4;59.5
57374;BME280;43964;53.890;25.340;2023-03-21T07:14:11;1018.7;;;12.4;59.3
57374;BME280;43964;53.890;25.340;2023-03-21T07:19:27;1018.7;;;12.2;59
57374;BME280;43964;53.890;25.340;2023-03-21T07:24:07;1018.7;;;12;58.9
57374;BME280;43964;53.890;25.340;2023-03-21T07:29:05;1018.7;;;12.1;58.7
57374;BME280;43964;53.890;25.340;2023-03-21T07:33:49;1018.7;;;12.3;58.5
57374;BME280;43964;53.890;25.340;2023-03-21T07:39:07;1018.7;;;12.5;58.1
57374;BME280;43964;53.890;25.340;2023-03-21T07:43:49;1018.7;;;12.6;57.8
57374;BME280;43964;53.890;25.340;2023-03-21T07:48:55;1018.7;;;12.6;57.8
57374;BME280;43964;53.890;25.340;2023-03-21T07:54:07;1018.8;;;12.7;57.8
57374;BME280;43964;53.890;25.340;2023-03-21T07:58:41;1018.8;;;12.6;57.4
57374;BME280;43964;53.890;25.340;2023-03-21T08:04:27;1018.8;;;12.5;57.4
57374;BME280;43964;53.890;25.340;2023-03-21T08:09:13;1018.9;;;12.4;57.5
57374;BME280;43964;53.890;25.340;2023-03-21T08:13:49;1018.9;;;12.5;57.3
57374;BME280;43964;53.890;25.340;2023-03-21T08:19:25;1019;;;12.4;57.3
57374;BME280;43964;53.890;25.340;2023-03-21T08:23:57;1019;;;12.2;57.5
57374;BME280;43964;53.890;25.340;2023-03-21T08:28:49;1019;;;12.2;57.4
57374;BME280;43964;53.890;25.340;2023-03-21T08:34:07;1019.1;;;12.1;57.5
57374;BME280;43964;53.890;25.340;2023-03-21T08:39:27;1019.1;;;12.1;57.3
57374;BME280;43964;53.890;25.340;2023-03-21T08:43:41;1019.1;;;11.9;57.4
57374;BME280;43964;53.890;25.340;2023-03-21T08:49:27;1019.1;;;11.7;57.5
57374;BME280;43964;53.890;25.340;2023-03-21T08:54:27;1019.2;;;11.9;57.4
57374;BME280;43964;53.890;25.340;2023-03-21T08:59:13;1019.3;;;12.3;56.9
57374;BME280;43964;53.890;25.340;2023-03-21T09:04:01;1019.4;;;12.5;56.6
57374;BME280;43964;53.890;25.340;2023-03-21T09:09:13;1019.4;;;12.6;56.4
57374;BME280;43964;53.890;25.340;2023-03-21T09:13:57;1019.4;;;12.6;55.9
57374;BME280;43964;53.890;25.340;2023-03-21T09:19:27;1019.5;;;12.8;55.6
57374;BME280;43964;53.890;25.340;2023-03-21T09:23:41;1019.5;;;13.2;55.4
57374;BME280;43964;53.890;25.340;2023-03-21T09:29:27;1019.5;;;13.1;55.5
57374;BME280;43964;53.890;25.340;2023-03-21T09:34:03;1019.6;;;12.9;55.5
57374;BME280;43964;53.890;25.340;2023-03-21T09:38:42;1019.6;;;12.7;55.5
57374;BME280;43964;53.890;25.340;2023-03-21T09:43:58;1019.6;;;12.7;55.3
57374;BME280;43964;53.890;25.340;2023-03-21T09:49:28;1019.6;;;12.8;55.1
57374;BME280;43964;53.890;25.340;2023-03-21T09:54:06;1019.7;;;13;54.8
57374;BME280;43964;53.890;25.340;2023-03-21T09:59:10;1019.7;;;13;54.7
57374;BME280;43964;53.890;25.340;2023-03-21T10:04:27;1019.7;;;13;54.6
57374;BME280;43964;53.890;25.340;2023-03-21T10:08:42;1019.7;;;12.8;54.7
57374;BME280;43964;53.890;25.340;2023-03-21T10:14:01;1019.7;;;12.7;54.7
57374;BME280;43964;53.890;25.340;2023-03-21T10:19:06;1019.7;;;12.6;54.7
57374;BME280;43964;53.890;25.340;2023-03-21T10:24:27;1019.7;;;12.7;54.6
57374;BME280;43964;53.890;25.340;2023-03-21T10:29:20;1019.7;;;13;54.2
57374;BME280;43964;53.890;25.340;2023-03-21T10:33:42;1019.7;;;13.1;53.9
57374;BME280;43964;53.890;25.340;2023-03-21T10:38:56;1019.8;;;12.8;54.3
57374;BME280;43964;53.890;25.340;2023-03-21T10:44:08;1019.8;;;12.7;54.3
57374;BME280;43964;53.890;25.340;2023-03-21T10:48:42;1019.9;;;12.6;54.4
57374;BME280;43964;53.890;25.340;2023-03-21T10:54:30;1020;;;12.6;54.5
57374;BME280;43964;53.890;25.340;2023-03-21T10:59:33;1020;;;12.4;54.8
57374;BME280;43964;53.890;25.340;2023-03-21T11:03:54;1020.1;;;12.1;55.2
57374;BME280;43964;53.890;25.340;2023-03-21T11:09:14;1020.1;;;12;55.4
57374;BME280;43964;53.890;25.340;2023-03-21T11:14:26;1020.1;;;12;55.6
57374;BME280;43964;53.890;25.340;2023-03-21T11:18:42;1020.1;;;12.1;55.6
57374;BME280;43964;53.890;25.340;2023-03-21T11:24:27;1020.1;;;12.3;55.3
57374;BME280;43964;53.890;25.340;2023-03-21T11:29:08;1020.1;;;12.2;55.8
57374;BME280;43964;53.890;25.340;2023-03-21T11:33:51;1020.2;;;11.9;56.2
57374;BME280;43964;53.890;25.340;2023-03-21T11:39:35;1020.3;;;11.7;55.9
57374;BME280;43964;53.890;25.340;2023-03-21T11:44:30;1020.2;;;11.7;56
57374;BME280;43964;53.890;25.340;2023-03-21T11:48:42;1020.2;;;11.9;55.8
57374;BME280;43964;53.890;25.340;2023-03-21T11:54:26;1020.1;;;12.3;55.4
57374;BME280;43964;53.890;25.340;2023-03-21T11:59:31;1020.1;;;12.8;54.9
57374;BME280;43964;53.890;25.340;2023-03-21T12:03:58;1020.1;;;13;54.4
57374;BME280;43964;53.890;25.340;2023-03-21T12:08:52;1020.1;;;13.2;54
57374;BME280;43964;53.890;25.340;2023-03-21T12:14:15;1020.1;;;13.5;53.5
57374;BME280;43964;53.890;25.340;2023-03-21T12:19:12;1020.1;;;13.7;52.9
57374;BME280;43964;53.890;25.340;2023-03-21T12:24:20;1020.1;;;13.8;52.4
57374;BME280;43964;53.890;25.340;2023-03-21T12:28:59;1020.1;;;13.8;52.1
57374;BME280;43964;53.890;25.340;2023-03-21T12:34:32;1020.1;;;13.7;51.9
57374;BME280;43964;53.890;25.340;2023-03-21T12:39:06;1020.1;;;13.2;52.1
57374;BME280;43964;53.890;25.340;2023-03-21T12:43:51;1020.1;;;12.9;51.9
57374;BME280;43964;53.890;25.340;2023-03-21T12:48:42;1020.1;;;12.7;51.9
57374;BME280;43964;53.890;25.340;2023-03-21T12:53:54;1020;;;12.8;51.6
57374;BME280;43964;53.890;25.340;2023-03-21T12:59:28;1020.1;;;12.8;51.4
57374;BME280;43964;53.890;25.340;2023-03-21T13:04:31;1020;;;12.9;51
57374;BME280;43964;53.890;25.340;2023-03-21T13:09:15;1020;;;13.1;50.5
57374;BME280;43964;53.890;25.340;2023-03-21T13:13:42;1020.1;;;13;50.8
57374;BME280;43964;53.890;25.340;2023-03-21T13:18:52;1020.1;;;12.9;50.7
57374;BME280;43964;53.890;25.340;2023-03-21T13:23:45;1020.1;;;13;50.5
57374;BME280;43964;53.890;25.340;2023-03-21T13:29:28;1020.1;;;13;50.5
57374;BME280;43964;53.890;25.340;2023-03-21T13:34:20;1020.1;;;13;50.5
57374;BME280;43964;53.890;25.340;2023-03-21T13:38:58;1020.2;;;13;50.5
57374;BME280;43964;53.890;25.340;2023-03-21T13:43:51;1020.2;;;12.9;50.5
57374;BME280;43964;53.890;25.340;2023-03-21T13:49:12;1020.2;;;12.7;50.5
57374;BME280;43964;53.890;25.340;2023-03-21T13:53:57;1020.2;;;12.6;50.4
57374;BME280;43964;53.890;25.340;2023-03-21T13:58:48;1020.2;;;12.5;50.4
57374;BME280;43964;53.890;25.340;2023-03-21T14:04:05;1020.1;;;12.4;50.3
57374;BME280;43964;53.890;25.340;2023-03-21T14:08:42;1020.1;;;12.4;50.1
57374;BME280;43964;53.890;25.340;2023-03-21T14:14:30;1020.2;;;12.5;50.1
57374;BME280;43964;53.890;25.340;2023-03-21T14:19:15;1020.3;;;12.6;50.1
57374;BME280;43964;53.890;25.340;2023-03-21T14:23:58;1020.3;;;12.5;50
57374;BME280;43964;53.890;25.340;2023-03-21T14:29:30;1020.3;;;12.4;49.9
57374;BME280;43964;53.890;25.340;2023-03-21T14:33:42;1020.4;;;12.3;50
57374;BME280;43964;53.890;25.340;2023-03-21T14:38:41;1020.4;;;12.3;50
57374;BME280;43964;53.890;25.340;2023-03-21T14:44:11;1020.4;;;12.2;50
57374;BME280;43964;53.890;25.340;2023-03-21T14:49:28;1020.3;;;12.1;50
57374;BME280;43964;53.890;25.340;2023-03-21T14:53:42;1020.3;;;12.2;50
57374;BME280;43964;53.890;25.340;2023-03-21T14:59:29;1020.4;;;12.3;49.9
57374;BME280;43964;53.890;25.340;2023-03-21T15:04:25;1020.4;;;12.4;49.8
57374;BME280;43964;53.890;25.340;2023-03-21T15:09:14;1020.4;;;12.4;49.7
57374;BME280;43964;53.890;25.340;2023-03-21T15:13:42;1020.4;;;12.4;49.7
57374;BME280;43964;53.890;25.340;2023-03-21T15:19:16;1020.4;;;12.4;49.6
57374;BME280;43964;53.890;25.340;2023-03-21T15:24:12;1020.4;;;12.4;49.6
57374;BME280;43964;53.890;25.340;2023-03-21T15:29:21;1020.4;;;12.3;49.6
57374;BME280;43964;53.890;25.340;2023-03-21T15:33:57;1020.4;;;12.1;49.8
57374;BME280;43964;53.890;25.340;2023-03-21T15:39:29;1020.5;;;12;49.9
57374;BME280;43964;53.890;25.340;2023-03-21T15:44:12;1020.5;;;11.9;49.9
57374;BME280;43964;53.890;25.340;2023-03-21T15:48:42;1020.5;;;11.8;50.1
57374;BME280;43964;53.890;25.340;2023-03-21T15:54:16;1020.5;;;11.6;50.3
57374;BME280;43964;53.890;25.340;2023-03-21T15:59:22;1020.6;;;11.5;50.5
57374;BME280;43964;53.890;25.340;2023-03-21T16:03:42;1020.6;;;11.4;50.8
57374;BME280;43964;53.890;25.340;2023-03-21T16:09:16;1020.7;;;11.3;51
57374;BME280;43964;53.890;25.340;2023-03-21T16:14:15;1020.8;;;11.2;50.8
57374;BME280;43964;53.890;25.340;2023-03-21T16:18:41;1020.9;;;11.2;51.1
57374;BME280;43964;53.890;25.340;2023-03-21T16:24:29;1020.9;;;11.2;51.3
57374;BME280;43964;53.890;25.340;2023-03-21T16:29:16;1021;;;11;51.6
57374;BME280;43964;53.890;25.340;2023-03-21T16:33:41;1021;;;10.9;51.8
57374;BME280;43964;53.890;25.340;2023-03-21T16:39:22;1021;;;10.9;52.1
57374;BME280;43964;53.890;25.340;2023-03-21T16:44:21;1021;;;10.9;52.3
57374;BME280;43964;53.890;25.340;2023-03-21T16:49:24;1021;;;10.9;52.6
57374;BME280;43964;53.890;25.340;2023-03-21T16:54:27;1021.1;;;10.9;52.8
57374;BME280;43964;53.890;25.340;2023-03-21T16:59:21;1021.2;;;10.8;53.1
57374;BME280;43964;53.890;25.340;2023-03-21T17:04:14;1021.2;;;10.7;53.4
57374;BME280;43964;53.890;25.340;2023-03-21T17:09:03;1021.3;;;10.7;53.7
57374;BME280;43964;53.890;25.340;2023-03-21T17:13:52;1021.4;;;10.5;54
57374;BME280;43964;53.890;25.340;2023-03-21T17:19:29;1021.4;;;10.4;54.9
57374;BME280;43964;53.890;25.340;2023-03-21T17:24:19;1021.4;;;10.5;55.3
57374;BME280;43964;53.890;25.340;2023-03-21T17:28:57;1021.5;;;10.5;55.8
57374;BME280;43964;53.890;25.340;2023-03-21T17:34:27;1021.6;;;10.5;55.9
57374;BME280;43964;53.890;25.340;2023-03-21T17:38:57;1021.7;;;10.5;56
57374;BME280;43964;53.890;25.340;2023-03-21T17:43:42;1021.8;;;10.5;56.1
57374;BME280;43964;53.890;25.340;2023-03-21T17:49:12;1021.8;;;10.5;56.3
57374;BME280;43964;53.890;25.340;2023-03-21T17:54:29;1021.8;;;10.5;56.4
57374;BME280;43964;53.890;25.340;2023-03-21T17:59:10;1021.8;;;10.5;56.7
57374;BME280;43964;53.890;25.340;2023-03-21T18:04:29;1021.8;;;10.5;56.8
57374;BME280;43964;53.890;25.340;2023-03-21T18:09:15;1021.8;;;10.4;57.3
57374;BME280;43964;53.890;25.340;2023-03-21T18:14:15;1021.9;;;10.4;57.5
57374;BME280;43964;53.890;25.340;2023-03-21T18:18:42;1021.9;;;10.4;57.4
57374;BME280;43964;53.890;25.340;2023-03-21T18:24:15;1021.9;;;10.4;57.4
57374;BME280;43964;53.890;25.340;2023-03-21T18:29:12;1021.9;;;10.4;57.4
57374;BME280;43964;53.890;25.340;2023-03-21T18:34:19;1022;;;10.3;57.5
57374;BME280;43964;53.890;25.340;2023-03-21T18:38:41;1021.9;;;10.3;57.6
57374;BME280;43964;53.890;25.340;2023-03-21T18:44:29;1021.9;;;10.2;57.7
57374;BME280;43964;53.890;25.340;2023-03-21T18:49:11;1022;;;10.1;58
57374;BME280;43964;53.890;25.340;2023-03-21T18:53:51;1022;;;10.1;58.2
57374;BME280;43964;53.890;25.340;2023-03-21T18:58:57;1022;;;10.1;58.2
57374;BME280;43964;53.890;25.340;2023-03-21T19:04:21;1022;;;10.1;58.3
57374;BME280;43964;53.890;25.340;2023-03-21T19:09:03;1022;;;10.1;58.3
57374;BME280;43964;53.890;25.340;2023-03-21T19:14:16;1021.9;;;10.1;58.5
57374;BME280;43964;53.890;25.340;2023-03-21T19:19:15;1021.9;;;10.1;58.7
57374;BME280;43964;53.890;25.340;2023-03-21T19:23:41;1021.9;;;10;58.8
57374;BME280;43964;53.890;25.340;2023-03-21T19:29:30;1021.9;;;10;58.6
57374;BME280;43964;53.890;25.340;2023-03-21T19:33:52;1022;;;10;58.8
57374;BME280;43964;53.890;25.340;2023-03-21T19:38:52;1022;;;10;58.7
57374;BME280;43964;53.890;25.340;2023-03-21T19:44:22;1022;;;10;58.6
57374;BME280;43964;53.890;25.340;2023-03-21T19:49:19;1022;;;10;58.5
57374;BME280;43964;53.890;25.340;2023-03-21T19:53:58;1022;;;10;58.4
57374;BME280;43964;53.890;25.340;2023-03-21T19:59:00;1022;;;10;58.4
57374;BME280;43964;53.890;25.340;2023-03-21T20:04:20;1022.1;;;9.9;58.4
57374;BME280;43964;53.890;25.340;2023-03-21T20:09:16;1022.1;;;9.9;58.4
57374;BME280;43964;53.890;25.340;2023-03-21T20:13:42;1022;;;9.9;58.4
57374;BME280;43964;53.890;25.340;2023-03-21T20:18:52;1022;;;9.8;58.4
57374;BME280;43964;53.890;25.340;2023-03-21T20:24:28;1022.1;;;9.8;58.5
57374;BME280;43964;53.890;25.340;2023-03-21T20:29:30;1022.1;;;9.7;58.4
57374;BME280;43964;53.890;25.340;2023-03-21T20:33:42;1022.1;;;9.5;58.5
57374;BME280;43964;53.890;25.340;2023-03-21T20:39:30;1022.1;;;9.4;58.8
57374;BME280;43964;53.890;25.340;2023-03-21T20:44:08;1022.1;;;9.3;59.1
57374;BME280;43964;53.890;25.340;2023-03-21T20:48:52;1022.1;;;9.3;59
57374;BME280;43964;53.890;25.340;2023-03-21T20:53:52;1022.2;;;9.3;59.2
57374;BME280;43964;53.890;25.340;2023-03-21T20:59:30;1022.2;;;9.3;59.2
57374;BME280;43964;53.890;25.340;2023-03-21T21:03:42;1022.2;;;9.3;59.2
57374;BME280;43964;53.890;25.340;2023-03-21T21:09:16;1022.2;;;9.4;59.2
57374;BME280;43964;53.890;25.340;2023-03-21T21:13:52;1022.2;;;9.4;59.2
57374;BME280;43964;53.890;25.340;2023-03-21T21:18:50;1022.2;;;9.4;59.4
57374;BME280;43964;53.890;25.340;2023-03-21T21:24:28;1022.2;;;9.4;59.5
57374;BME280;43964;53.890;25.340;2023-03-21T21:29:20;1022.2;;;9.4;59.6
57374;BME280;43964;53.890;25.340;2023-03-21T21:33:58;1022.2;;;9.3;59.7
57374;BME280;43964;53.890;25.340;2023-03-21T21:39:28;1022.2;;;9.3;59.8
57374;BME280;43964;53.890;25.340;2023-03-21T21:44:00;1022.3;;;9.3;59.5
57374;BME280;43964;53.890;25.340;2023-03-21T21:49:28;1022.3;;;9.3;59.4
57374;BME280;43964;53.890;25.340;2023-03-21T21:54:10;1022.3;;;9.3;59.5
57374;BME280;43964;53.890;25.340;2023-03-21T21:58:42;1022.4;;;9.4;59.4
57374;BME280;43964;53.890;25.340;2023-03-21T22:04:30;1022.4;;;9.5;59.1
57374;BME280;43964;53.890;25.340;2023-03-21T22:08:42;1022.4;;;9.5;58.9
57374;BME280;43964;53.890;25.340;2023-03-21T22:14:30;1022.4;;;9.5;58.8
57374;BME280;43964;53.890;25.340;2023-03-21T22:19:20;1022.4;;;9.5;58.8
57374;BME280;43964;53.890;25.340;2023-03-21T22:23:42;1022.4;;;9.6;58.7
57374;BME280;43964;53.890;25.340;2023-03-21T22:29:28;1022.4;;;9.6;58.6
57374;BME280;43964;53.890;25.340;2023-03-21T22:33:52;1022.4;;;9.6;58.6
57374;BME280;43964;53.890;25.340;2023-03-21T22:39:30;1022.4;;;9.6;58.7
57374;BME280;43964;53.890;25.340;2023-03-21T22:44:22;1022.5;;;9.6;58.6
57374;BME280;43964;53.890;25.340;2023-03-21T22:48:48;1022.5;;;9.6;58.6
57374;BME280;43964;53.890;25.340;2023-03-21T22:54:28;1022.5;;;9.4;58.5
57374;BME280;43964;53.890;25.340;2023-03-21T22:59:08;1022.4;;;9.4;58.7
57374;BME280;43964;53.890;25.340;2023-03-21T23:04:28;1022.4;;;9.4;58.8
57374;BME280;43964;53.890;25.340;2023-03-21T23:09:20;1022.5;;;9.5;58.8
57374;BME280;43964;53.890;25.340;2023-03-21T23:13:42;1022.6;;;9.5;58.8
57374;BME280;43964;53.890;25.340;2023-03-21T23:19:30;1022.6;;;9.5;58.7
57374;BME280;43964;53.890;25.340;2023-03-21T23:23:54;1022.6;;;9.5;58.7
57374;BME280;43964;53.890;25.340;2023-03-21T23:29:12;1022.6;;;9.5;58.7
57374;BME280;43964;53.890;25.340;2023-03-21T23:34:18;1022.6;;;9.5;58.6
57374;BME280;43964;53.890;25.340;2023-03-21T23:39:04;1022.6;;;9.6;58.6
57374;BME280;43964;53.890;25.340;2023-03-21T23:44:22;1022.5;;;9.5;58.5
57374;BME280;43964;53.890;25.340;2023-03-21T23:48:52;1022.4;;;9.5;58.5
57374;BME280;43964;53.890;25.340;2023-03-21T23:54:30;1022.4;;;9.5;58.4
57374;BME280;43964;53.890;25.340;2023-03-21T23:59:22;1022.4;;;9.5;58.4
